Time;durP1;ratioP1;P1;durP2;ratioP2;P2;SDS_P1;SDS_P2;PMS_P1;PMS_P2;Temp;Humidity;BMP_temperature;BMP_pressure;BME280_temperature;BME280_humidity;BME280_pressure;Samples;Min_cycle;Max_cycle;Signal;HPM_P1;HPM_P2
2023/12/02 00:00:04;;;;;;;6.30;5.72;;;;;;;16.99;40.83;96740.19;10388379;28;20102;-49
2023/12/02 00:05:03;;;;;;;7.32;6.03;;;;;;;16.88;40.37;96709.19;10373719;28;20111;-51
2023/12/02 00:10:03;;;;;;;12.30;7.05;;;;;;;16.80;40.26;96674.59;10387625;28;20060;-50
2023/12/02 00:15:02;;;;;;;8.27;6.75;;;;;;;17.13;40.44;96724.72;10394091;28;20056;-51
2023/12/02 00:20:02;;;;;;;7.10;5.97;;;;;;;16.75;40.69;96690.50;10389305;28;20128;-50
2023/12/02 00:25:01;;;;;;;8.13;6.03;;;;;;;16.66;40.20;96675.19;10378991;28;20135;-50
2023/12/02 00:30:00;;;;;;;6.90;6.05;;;;;;;16.95;40.46;96725.50;10382587;28;20624;-49
2023/12/02 00:34:59;;;;;;;;;;;;;;;16.98;40.19;96722.75;10385665;28;20036;-50
2023/12/02 00:39:58;;;;;;;8.20;5.67;;;;;;;17.01;40.38;96710.38;10381472;28;19912;-50
2023/12/02 00:44:57;;;;;;;;;;;;;;;17.05;40.29;96716.31;10382822;28;20040;-50
2023/12/02 00:49:56;;;;;;;9.10;6.45;;;;;;;16.92;40.46;96690.66;10380984;28;19969;-49
2023/12/02 00:54:55;;;;;;;;;;;;;;;17.05;40.33;96716.31;10383211;28;20541;-50
2023/12/02 00:59:53;;;;;;;11.97;6.23;;;;;;;16.76;40.65;96646.81;10390020;28;20015;-49
2023/12/02 01:04:52;;;;;;;;;;;;;;;17.12;40.28;96717.75;10382542;28;20602;-51
2023/12/02 01:09:51;;;;;;;6.57;5.93;;;;;;;17.04;40.58;96701.53;10391308;28;19956;-50
2023/12/02 01:14:50;;;;;;;;;;;;;;;17.10;40.50;96683.75;10379292;28;21560;-52
2023/12/02 01:19:49;;;;;;;8.57;6.75;;;;;;;16.85;40.83;96651.69;10389658;28;19990;-50
2023/12/02 01:24:47;;;;;;;;;;;;;;;17.05;40.41;96679.63;10390802;28;20108;-50
2023/12/02 01:29:46;;;;;;;11.80;6.40;;;;;;;17.06;40.51;96689.22;10396192;28;20041;-50
2023/12/02 01:34:46;;;;;;;;;;;;;;;17.11;40.55;96674.13;10388687;28;20100;-50
2023/12/02 01:39:44;;;;;;;10.47;6.30;;;;;;;16.95;40.83;96645.13;10390427;28;20576;-50
2023/12/02 01:44:43;;;;;;;;;;;;;;;16.88;40.93;96654.16;10383684;28;20757;-50
2023/12/02 01:49:44;;;;;;;9.07;6.40;;;;;;;16.88;41.68;96651.53;10374193;28;20434;-50
2023/12/02 01:54:43;;;;;;;11.13;6.32;;;;;;;16.85;41.66;96644.69;10383854;28;20124;-50
2023/12/02 01:59:53;;;;;;;9.23;6.15;;;;;;;16.74;41.15;96633.78;10374034;28;20140;-50
2023/12/02 02:04:52;;;;;;;10.68;6.68;;;;;;;16.76;40.85;96636.34;10362619;28;20072;-52
2023/12/02 02:09:51;;;;;;;8.15;5.88;;;;;;;16.69;40.88;96633.97;10388184;28;20485;-50
2023/12/02 02:14:50;;;;;;;;;;;;;;;16.82;40.59;96641.34;10377318;28;20439;-51
2023/12/02 02:19:49;;;;;;;6.23;5.83;;;;;;;16.58;40.70;96581.19;10379811;28;20035;-50
2023/12/02 02:24:47;;;;;;;;;;;;;;;16.69;40.72;96623.50;10372494;28;20056;-51
2023/12/02 02:29:46;;;;;;;8.50;6.33;;;;;;;15.99;40.61;96519.19;10376854;28;19963;-50
2023/12/02 02:34:45;;;;;;;;;;;;;;;16.69;40.51;96636.59;10390804;28;20044;-50
2023/12/02 02:39:44;;;;;;;7.38;5.90;;;;;;;16.71;40.77;96626.06;10381441;28;19955;-49
2023/12/02 02:44:43;;;;;;;;;;;;;;;16.69;40.95;96615.63;10386714;28;20052;-52
2023/12/02 02:49:42;;;;;;;6.57;5.80;;;;;;;16.37;40.60;96572.53;10390574;28;19946;-49
2023/12/02 02:54:40;;;;;;;;;;;;;;;16.71;40.01;96649.63;10381663;28;20511;-49
2023/12/02 02:59:39;;;;;;;10.15;6.75;;;;;;;16.68;39.65;96607.88;10389451;28;20580;-50
2023/12/02 03:04:38;;;;;;;;;;;;;;;16.85;39.51;96620.25;10381692;28;20914;-50
2023/12/02 03:09:37;;;;;;;7.55;5.63;;;;;;;16.76;39.66;96595.25;10391899;28;20497;-48
2023/12/02 03:14:38;;;;;;;;;;;;;;;16.82;40.10;96584.56;10395969;28;20036;-50
2023/12/02 03:19:37;;;;;;;6.30;5.78;;;;;;;15.80;39.90;96433.63;10390553;28;19952;-50
2023/12/02 03:24:36;;;;;;;;;;;;;;;16.84;39.07;96585.34;10388230;28;20108;-50
2023/12/02 03:29:35;;;;;;;;;;;;;;;17.04;38.37;96583.59;10399672;28;20070;-50
2023/12/02 03:34:33;;;;;;;;;;;;;;;17.04;38.40;96578.34;10401507;28;19989;-48
2023/12/02 03:39:32;;;;;;;;;;;;;;;17.14;38.33;96572.63;10408800;28;19920;-50
2023/12/02 03:44:31;;;;;;;;;;;;;;;17.15;38.15;96552.50;10398874;28;20729;-48
2023/12/02 03:49:30;;;;;;;;;;;;;;;17.13;38.23;96549.09;10406328;28;19916;-52
2023/12/02 03:54:28;;;;;;;;;;;;;;;17.00;39.23;96547.94;10398502;28;20383;-50
2023/12/02 03:59:27;;;;;;;;;;;;;;;16.88;39.67;96580.81;10405143;28;20310;-50
2023/12/02 04:04:26;;;;;;;;;;;;;;;16.91;39.33;96592.00;10412694;28;19965;-51
2023/12/02 04:09:25;;;;;;;;;;;;;;;17.02;38.89;96595.91;10388719;28;19924;-52
2023/12/02 04:14:24;;;;;;;;;;;;;;;17.06;38.47;96582.59;10394340;28;19948;-52
2023/12/02 04:19:23;;;;;;;;;;;;;;;17.09;38.57;96597.31;10396196;28;20047;-50
2023/12/02 04:24:22;;;;;;;;;;;;;;;17.11;38.25;96617.31;10403083;28;19931;-51
2023/12/02 04:29:21;;;;;;;;;;;;;;;17.19;38.20;96611.72;10410633;28;20011;-52
2023/12/02 04:34:20;;;;;;;;;;;;;;;17.29;37.83;96589.41;10391520;28;20023;-51
2023/12/02 04:39:19;;;;;;;;;;;;;;;17.32;37.93;96568.28;10404105;28;19920;-53
2023/12/02 04:44:17;;;;;;;;;;;;;;;17.43;37.88;96565.16;10391591;28;20000;-50
2023/12/02 04:49:16;;;;;;;;;;;;;;;17.40;37.46;96564.44;10398567;28;19959;-52
2023/12/02 04:54:15;;;;;;;;;;;;;;;17.35;37.19;96554.16;10402120;28;19926;-51
2023/12/02 04:59:13;;;;;;;;;;;;;;;17.42;37.50;96581.78;10395723;28;19996;-51
2023/12/02 05:04:12;;;;;;;;;;;;;;;17.41;37.95;96561.75;10400167;28;19920;-50
2023/12/02 05:09:11;;;;;;;;;;;;;;;17.38;37.28;96540.06;10381491;28;20272;-50
2023/12/02 05:14:10;;;;;;;;;;;;;;;17.37;37.25;96564.59;10373052;28;20595;-50
2023/12/02 05:19:09;;;;;;;;;;;;;;;17.41;37.45;96539.94;10384197;28;19923;-51
2023/12/02 05:24:08;;;;;;;;;;;;;;;17.41;37.01;96550.41;10380227;28;19960;-50
2023/12/02 05:29:07;;;;;;;;;;;;;;;17.42;37.03;96557.34;10385633;28;19974;-50
2023/12/02 05:34:05;;;;;;;;;;;;;;;17.45;37.33;96562.44;10383376;28;19930;-51
2023/12/02 05:39:04;;;;;;;;;;;;;;;17.51;37.05;96583.13;10377825;28;19917;-51
2023/12/02 05:44:03;;;;;;;;;;;;;;;17.39;36.90;96557.50;10384720;28;20005;-50
2023/12/02 05:49:02;;;;;;;;;;;;;;;17.40;36.80;96553.94;10377471;28;19979;-50
2023/12/02 05:54:01;;;;;;;;;;;;;;;17.41;36.66;96566.16;10388331;28;19936;-50
2023/12/02 05:58:59;;;;;;;;;;;;;;;17.47;36.70;96577.22;10382059;28;19964;-50
2023/12/02 06:03:58;;;;;;;;;;;;;;;17.40;37.38;96585.41;10375580;28;19986;-51
2023/12/02 06:12:58;;;;;;;7.30;6.80;;;;;;;17.39;37.06;96541.78;10248144;27;20132;-50
2023/12/02 06:17:57;;;;;;;;;;;;;;;17.36;37.07;96574.22;10454644;28;20714;-49
2023/12/02 06:22:56;;;;;;;8.80;6.73;;;;;;;17.34;36.97;96550.69;10482119;28;20434;-49
2023/12/02 06:27:55;;;;;;;;;;;;;;;17.29;36.76;96583.31;10481682;28;20034;-50
2023/12/02 06:32:53;;;;;;;7.88;6.70;;;;;;;17.11;36.89;96553.53;10479528;28;20027;-49
2023/12/02 06:37:52;;;;;;;;;;;;;;;17.37;36.59;96554.09;10482937;28;20103;-51
2023/12/02 06:42:51;;;;;;;7.53;6.82;;;;;;;17.27;36.35;96536.19;10479622;28;19912;-49
2023/12/02 06:47:50;;;;;;;;;;;;;;;17.45;36.20;96565.06;10481684;28;20556;-49
2023/12/02 06:52:50;;;;;;;7.53;6.40;;;;;;;17.25;35.85;96539.81;10480680;28;20679;-49
2023/12/02 06:57:49;;;;;;;7.18;6.57;;;;;;;17.63;35.80;96572.06;10476698;28;20055;-49
2023/12/02 07:02:48;;;;;;;9.13;6.25;;;;;;;17.61;35.75;96560.78;10481206;28;20016;-49
2023/12/02 07:07:47;;;;;;;;;;;;;;;17.72;35.47;96576.00;10480494;28;20060;-50
2023/12/02 07:12:46;;;;;;;7.90;6.30;;;;;;;17.45;35.58;96534.47;10479967;28;19951;-51
2023/12/02 07:17:45;;;;;;;6.80;6.13;;;;;;;17.56;35.24;96558.38;10479391;28;20032;-50
2023/12/02 07:22:44;;;;;;;;;;;;;;;17.66;35.30;96568.44;10458986;28;20735;-52
2023/12/02 07:27:43;;;;;;;6.03;5.43;;;;;;;17.66;35.36;96586.78;10450826;28;19977;-51
2023/12/02 07:32:43;;;;;;;;;;;;;;;17.62;35.32;96562.50;10450513;28;20881;-52
2023/12/02 07:37:45;;;;;;;6.40;5.60;;;;;;;17.44;35.68;96558.97;10451998;28;20337;-50
2023/12/02 07:42:44;;;;;;;6.95;6.22;;;;;;;17.58;36.32;96570.59;10445375;28;20078;-52
2023/12/02 07:47:43;;;;;;;11.75;9.43;;;;;;;17.39;36.14;96552.25;10449674;28;20028;-50
2023/12/02 07:52:42;;;;;;;;;;;;;;;17.50;36.32;96611.16;10448309;28;20087;-50
2023/12/02 07:57:41;;;;;;;7.47;6.27;;;;;;;17.38;36.99;96601.25;10445444;28;20018;-50
2023/12/02 08:02:39;;;;;;;;;;;;;;;17.33;37.26;96606.69;10451162;28;20120;-50
2023/12/02 08:07:38;;;;;;;8.60;6.73;;;;;;;16.86;37.24;96511.88;10455000;28;19951;-49
2023/12/02 08:12:37;;;;;;;;;;;;;;;17.24;37.15;96586.16;10453824;28;20079;-50
2023/12/02 08:17:36;;;;;;;7.67;5.87;;;;;;;17.21;36.89;96574.94;10454357;28;19983;-50
2023/12/02 08:22:35;;;;;;;;;;;;;;;17.31;36.63;96589.34;10453970;28;20116;-49
2023/12/02 08:27:34;;;;;;;7.43;6.40;;;;;;;17.35;36.42;96604.84;10453879;28;19962;-48
2023/12/02 08:32:32;;;;;;;;;;;;;;;16.76;36.48;96482.63;10448110;28;20027;-48
2023/12/02 08:37:31;;;;;;;7.30;6.43;;;;;;;17.34;35.96;96590.03;10448832;28;19912;-49
2023/12/02 08:42:30;;;;;;;;;;;;;;;17.42;36.67;96609.78;10449652;28;20468;-50
2023/12/02 08:47:29;;;;;;;7.43;6.20;;;;;;;17.46;36.46;96588.59;10447672;28;19916;-51
2023/12/02 08:52:28;;;;;;;;;;;;;;;17.43;36.51;96588.75;10448802;28;20142;-49
2023/12/02 08:57:27;;;;;;;9.70;7.37;;;;;;;17.20;37.16;96568.00;10447798;28;19955;-51
2023/12/02 09:02:25;;;;;;;;;;;;;;;17.31;36.78;96578.84;10448227;28;20107;-48
2023/12/02 09:07:25;;;;;;;8.13;5.72;;;;;;;17.42;36.41;96563.44;10447324;28;19999;-49
2023/12/02 09:12:24;;;;;;;6.93;6.30;;;;;;;17.38;36.51;96555.78;10445428;28;20123;-49
2023/12/02 09:17:46;;;;;;;;;;;;;;;17.42;36.34;96546.84;10448775;28;20114;-50
2023/12/02 09:22:47;;;;;;;9.07;6.03;;;;;;;17.45;36.47;96549.31;10440833;28;19951;-49
2023/12/02 09:28:06;;;;;;;6.15;5.63;;;;;;;17.41;36.41;96545.16;10446304;28;20530;-51
2023/12/02 09:33:05;;;;;;;7.10;6.37;;;;;;;17.31;36.97;96542.97;10444597;28;20060;-49
2023/12/02 09:38:03;;;;;;;;;;;;;;;17.32;36.75;96563.03;10447004;28;20063;-51
2023/12/02 09:43:12;;;;;;;9.00;5.97;;;;;;;17.28;36.73;96573.72;10444842;28;19969;-50
2023/12/02 09:48:22;;;;;;;12.45;6.20;;;;;;;17.25;37.79;96551.13;10430954;28;20963;-50
2023/12/02 09:53:33;;;;;;;8.30;6.40;;;;;;;17.37;37.21;96556.72;10446818;28;20503;-49
2023/12/02 09:58:41;;;;;;;8.45;6.85;;;;;;;17.30;37.40;96533.41;10444035;28;20067;-51
2023/12/02 10:04:08;;;;;;;7.05;6.30;;;;;;;17.64;37.01;96555.41;10449978;28;20082;-49
2023/12/02 10:09:33;;;;;;;8.20;6.72;;;;;;;17.70;36.48;96555.09;10448219;28;20185;-49
2023/12/02 10:14:36;;;;;;;12.15;7.65;;;;;;;17.72;37.14;96563.75;10446567;28;20078;-50
2023/12/02 10:19:46;;;;;;;9.55;7.20;;;;;;;17.66;37.04;96555.31;10449872;28;20040;-49
2023/12/02 10:24:49;;;;;;;7.22;5.75;;;;;;;17.14;36.62;96474.75;10449196;28;20067;-49
2023/12/02 10:30:15;;;;;;;8.27;6.63;;;;;;;17.49;37.15;96529.91;10449536;28;20054;-50
2023/12/02 10:35:28;;;;;;;10.90;8.27;;;;;;;17.26;36.62;96447.97;10447973;28;20075;-51
2023/12/02 10:40:29;;;;;;;10.10;7.47;;;;;;;17.57;36.64;96475.31;10448778;28;20115;-49
2023/12/02 10:45:30;;;;;;;9.80;7.50;;;;;;;17.77;35.86;96485.66;10448473;28;20071;-52
2023/12/02 10:50:29;;;;;;;11.70;7.40;;;;;;;17.90;35.40;96458.84;10449176;28;20060;-49
2023/12/02 10:55:31;;;;;;;12.30;8.07;;;;;;;18.26;34.94;96476.22;10449111;28;20066;-52
2023/12/02 11:00:34;;;;;;;8.30;6.50;;;;;;;18.37;34.62;96481.78;10455452;28;20056;-49
2023/12/02 11:05:41;;;;;;;7.40;6.80;;;;;;;18.53;33.72;96485.28;10455233;28;20528;-52
2023/12/02 11:10:40;;;;;;;12.55;7.40;;;;;;;18.69;33.46;96480.09;10454954;28;20102;-49
2023/12/02 11:15:56;;;;;;;8.27;7.40;;;;;;;18.74;33.24;96445.69;10455193;28;20024;-51
2023/12/02 11:21:04;;;;;;;11.77;6.78;;;;;;;18.80;33.54;96463.72;10454142;28;20059;-50
2023/12/02 11:26:21;;;;;;;11.00;6.50;;;;;;;18.84;33.17;96461.78;10454531;28;20062;-54
2023/12/02 11:31:47;;;;;;;7.85;6.53;;;;;;;18.81;33.30;96454.94;10455042;28;20052;-52
2023/12/02 11:36:59;;;;;;;10.73;7.15;;;;;;;18.74;33.63;96446.53;10454755;28;20067;-52
2023/12/02 11:42:06;;;;;;;9.95;6.47;;;;;;;18.37;33.96;96368.84;10454922;28;20055;-51
2023/12/02 11:47:11;;;;;;;7.72;6.93;;;;;;;18.56;33.72;96424.69;10453648;28;20131;-52
2023/12/02 11:52:39;;;;;;;7.93;6.80;;;;;;;18.66;33.50;96400.53;10454644;28;20099;-51
2023/12/02 11:58:15;;;;;;;9.43;6.25;;;;;;;18.63;33.63;96392.84;10454814;28;20051;-50
2023/12/02 12:03:23;;;;;;;7.15;6.00;;;;;;;18.71;33.10;96374.88;10449784;28;20187;-49
2023/12/02 12:08:24;;;;;;;12.35;5.68;;;;;;;18.67;33.61;96391.75;10450008;28;20115;-50
2023/12/02 12:13:26;;;;;;;7.00;6.30;;;;;;;18.74;33.78;96401.00;10451069;28;20179;-50
2023/12/02 12:18:25;;;;;;;9.10;6.15;;;;;;;18.86;32.98;96413.47;10452569;28;20512;-49
2023/12/02 12:23:24;;;;;;;11.85;6.78;;;;;;;18.98;33.02;96422.44;10531711;22;20053;-51
2023/12/02 12:28:25;;;;;;;11.45;7.03;;;;;;;18.75;32.83;96392.19;10372874;28;20098;-49
2023/12/02 12:33:24;;;;;;;11.88;7.28;;;;;;;18.86;33.31;96426.59;10372035;28;20068;-49
2023/12/02 12:38:23;;;;;;;9.88;6.65;;;;;;;18.76;33.63;96434.16;10373253;28;20061;-50
2023/12/02 12:43:23;;;;;;;12.80;6.93;;;;;;;18.54;33.16;96425.69;10371798;28;20109;-49
2023/12/02 12:48:25;;;;;;;10.82;7.03;;;;;;;18.63;34.41;96440.97;10376520;28;20075;-50
2023/12/02 12:53:29;;;;;;;9.95;6.95;;;;;;;18.58;33.77;96469.28;10370742;28;20084;-50
2023/12/02 12:58:29;;;;;;;11.77;6.82;;;;;;;18.55;33.94;96467.66;10367145;28;20064;-50
2023/12/02 13:03:46;;;;;;;8.95;7.30;;;;;;;18.53;34.74;96480.03;10367735;28;20052;-50
2023/12/02 13:08:59;;;;;;;8.13;7.30;;;;;;;18.61;34.25;96477.81;10367573;28;20102;-51
2023/12/02 13:14:04;;;;;;;8.20;7.15;;;;;;;18.41;34.71;96454.44;10366825;28;20064;-50
2023/12/02 13:19:07;;;;;;;11.88;6.90;;;;;;;18.17;34.59;96441.66;10366230;28;20063;-50
2023/12/02 13:24:07;;;;;;;9.25;7.85;;;;;;;18.23;34.63;96461.47;10368520;28;20121;-51
2023/12/02 13:29:09;;;;;;;9.32;7.55;;;;;;;18.29;34.45;96449.78;10368373;28;20072;-50
2023/12/02 13:34:50;;;;;;;9.95;7.63;;;;;;;18.18;34.67;96459.09;10367974;28;20056;-50
2023/12/02 13:39:55;;;;;;;7.70;7.00;;;;;;;18.11;34.42;96451.63;10355717;28;20064;-50
2023/12/02 13:45:04;;;;;;;7.40;6.72;;;;;;;17.52;34.41;96354.03;10365991;28;20068;-53
2023/12/02 13:50:04;;;;;;;8.73;7.93;;;;;;;17.81;34.39;96412.06;10382232;28;20126;-51
2023/12/02 13:55:15;;;;;;;7.82;6.60;;;;;;;17.83;34.30;96425.97;10368198;28;20423;-51
2023/12/02 14:00:20;;;;;;;8.73;6.60;;;;;;;17.95;34.25;96435.81;10367311;28;20065;-50
2023/12/02 14:05:34;;;;;;;8.85;7.50;;;;;;;17.97;34.44;96424.31;10349026;28;20065;-50
2023/12/02 14:10:35;;;;;;;8.55;7.07;;;;;;;18.01;34.55;96430.25;10326042;28;20076;-50
2023/12/02 14:15:48;;;;;;;8.32;7.50;;;;;;;17.90;34.71;96411.59;10326535;28;20578;-49
2023/12/02 14:21:11;;;;;;;8.68;7.65;;;;;;;17.94;34.21;96428.84;10325436;28;20846;-53
2023/12/02 14:26:38;;;;;;;8.15;6.97;;;;;;;17.86;34.07;96436.28;10325329;28;20072;-50
2023/12/02 14:31:57;;;;;;;10.50;7.40;;;;;;;17.97;34.08;96455.81;10328695;28;20468;-50
2023/12/02 14:37:37;;;;;;;8.73;7.82;;;;;;;17.73;34.60;96452.63;10333618;28;20112;-51
2023/12/02 14:43:07;;;;;;;10.90;6.93;;;;;;;17.45;34.94;96407.72;10333246;28;20651;-51
2023/12/02 14:48:07;;;;;;;;;;;;;;;17.48;34.77;96446.91;10340423;28;20128;-50
2023/12/02 14:53:08;;;;;;;9.48;7.80;;;;;;;17.43;34.76;96433.19;10333896;28;20418;-51
2023/12/02 14:58:17;;;;;;;15.88;8.10;;;;;;;17.30;35.02;96449.50;10333221;28;20052;-50
2023/12/02 15:03:17;;;;;;;11.40;8.10;;;;;;;15.81;35.36;96214.78;10333687;28;20053;-50
2023/12/02 15:08:17;;;;;;;13.88;8.57;;;;;;;17.11;35.54;96433.81;10331535;28;20124;-50
2023/12/02 15:13:21;;;;;;;10.18;7.53;;;;;;;16.50;36.06;96345.88;10331472;28;20065;-50
2023/12/02 15:18:24;;;;;;;10.30;7.25;;;;;;;16.88;36.42;96431.44;10373302;28;20064;-50
2023/12/02 15:23:29;;;;;;;8.50;7.10;;;;;;;16.66;36.78;96439.44;10372554;28;20462;-51
2023/12/02 15:28:30;;;;;;;15.77;7.72;;;;;;;16.50;37.24;96432.28;10333274;28;20049;-50
2023/12/02 15:33:41;;;;;;;13.52;7.90;;;;;;;16.35;37.62;96433.00;10330829;28;20049;-51
2023/12/02 15:38:41;;;;;;;7.53;6.72;;;;;;;15.38;38.12;96288.13;10330455;28;20053;-49
2023/12/02 15:43:40;;;;;;;11.38;8.07;;;;;;;16.09;38.28;96419.31;10331077;28;20068;-51
2023/12/02 15:48:40;;;;;;;10.88;7.38;;;;;;;16.32;38.17;96437.50;10331377;28;20137;-51
2023/12/02 15:53:39;;;;;;;12.38;7.90;;;;;;;16.18;38.66;96419.78;10330437;28;20128;-50
2023/12/02 15:58:38;;;;;;;;;;;;;;;16.16;38.86;96382.38;10331234;28;20021;-50
2023/12/02 16:03:37;;;;;;;11.45;7.45;;;;;;;15.40;39.19;96244.47;10330172;28;19956;-50
2023/12/02 16:08:37;;;;;;;10.98;7.75;;;;;;;15.74;38.65;96303.13;10329946;28;20137;-52
2023/12/02 16:13:39;;;;;;;12.88;7.55;;;;;;;15.97;38.74;96372.72;10331657;28;20109;-53
2023/12/02 16:18:39;;;;;;;15.30;7.22;;;;;;;15.53;38.80;96297.09;10329636;28;20725;-52
2023/12/02 16:23:38;;;;;;;9.60;7.55;;;;;;;15.91;38.76;96354.72;10331976;28;20073;-51
2023/12/02 16:28:39;;;;;;;;;;;;;;;16.13;38.83;96390.38;10329936;28;20065;-51
2023/12/02 16:33:38;;;;;;;10.50;7.10;;;;;;;16.03;38.87;96385.53;10328863;28;20008;-51
2023/12/02 16:38:40;;;;;;;;;;;;;;;16.05;38.44;96404.66;10329486;28;20099;-50
2023/12/02 16:43:39;;;;;;;11.07;7.85;;;;;;;15.95;38.47;96376.34;10329730;28;20488;-53
2023/12/02 16:48:38;;;;;;;10.80;7.35;;;;;;;15.24;38.29;96228.63;10329459;28;20072;-50
2023/12/02 16:53:37;;;;;;;;;;;;;;;16.07;38.30;96384.50;10328168;28;20029;-52
2023/12/02 16:58:37;;;;;;;9.13;7.13;;;;;;;16.15;37.86;96370.22;10329012;28;19923;-50
2023/12/02 17:03:37;;;;;;;17.02;8.32;;;;;;;16.17;38.38;96365.78;10328807;28;20076;-51
2023/12/02 17:08:38;;;;;;;8.85;6.90;;;;;;;15.95;38.07;96329.25;10327765;28;20053;-50
2023/12/02 17:13:43;;;;;;;9.57;7.18;;;;;;;16.15;38.17;96378.06;10328362;28;20056;-50
2023/12/02 17:18:42;;;;;;;11.48;6.75;;;;;;;16.02;38.58;96352.47;10328008;28;20473;-50
2023/12/02 17:23:46;;;;;;;;;;;;;;;16.03;38.81;96348.91;10327926;28;20498;-50
2023/12/02 17:28:45;;;;;;;12.13;7.70;;;;;;;15.94;38.81;96349.31;10327800;28;19963;-49
2023/12/02 17:33:44;;;;;;;;;;;;;;;16.02;38.89;96351.59;10327698;28;20091;-50
2023/12/02 17:38:43;;;;;;;9.07;6.88;;;;;;;15.74;39.24;96308.34;10326999;28;20355;-52
2023/12/02 17:43:42;;;;;;;;;;;;;;;16.02;39.41;96347.22;10328246;28;20049;-51
2023/12/02 17:48:41;;;;;;;11.18;6.43;;;;;;;14.47;40.10;96094.44;10327257;28;19920;-50
2023/12/02 17:53:40;;;;;;;10.18;7.90;;;;;;;15.71;40.24;96315.47;10341262;28;20053;-50
2023/12/02 17:58:39;;;;;;;;;;;;;;;15.80;41.20;96359.56;10327419;28;20057;-50
2023/12/02 18:03:37;;;;;;;10.32;7.13;;;;;;;15.36;42.36;96334.38;10326885;28;19917;-52
2023/12/02 18:08:36;;;;;;;;;;;;;;;15.51;42.89;96372.13;10326710;28;20153;-52
2023/12/02 18:13:36;;;;;;;10.43;6.95;;;;;;;15.51;43.07;96372.13;10326766;28;19921;-50
2023/12/02 18:18:35;;;;;;;8.07;6.78;;;;;;;15.20;43.22;96330.72;10325587;28;20108;-50
2023/12/02 18:23:33;;;;;;;;;;;;;;;15.30;43.21;96368.66;10324688;28;20048;-49
2023/12/02 18:28:32;;;;;;;8.80;7.53;;;;;;;15.28;43.62;96365.25;10324437;28;19928;-49
2023/12/02 18:33:31;;;;;;;11.23;7.75;;;;;;;15.17;42.89;96357.00;10325577;28;20057;-49
2023/12/02 18:38:30;;;;;;;8.48;6.47;;;;;;;15.32;42.99;96373.78;10325414;28;20063;-50
2023/12/02 18:43:29;;;;;;;9.95;6.43;;;;;;;15.31;42.98;96367.72;10325928;28;20137;-49
2023/12/02 18:48:28;;;;;;;10.68;7.63;;;;;;;15.16;43.29;96356.16;10325982;28;20114;-49
2023/12/02 18:53:27;;;;;;;;;;;;;;;15.17;43.50;96381.34;10325915;28;20109;-50
2023/12/02 18:58:27;;;;;;;11.77;7.93;;;;;;;14.96;44.49;96354.34;10325688;28;19921;-51
2023/12/02 19:03:26;;;;;;;9.80;7.18;;;;;;;15.00;44.22;96387.28;10324843;28;20068;-50
2023/12/02 19:08:25;;;;;;;;;;;;;;;14.96;43.75;96401.38;10325741;28;20426;-50
2023/12/02 19:13:23;;;;;;;8.07;7.28;;;;;;;15.08;42.79;96373.06;10325244;28;19923;-50
2023/12/02 19:18:22;;;;;;;13.57;7.68;;;;;;;15.20;42.00;96381.25;10328674;28;20064;-49
2023/12/02 19:23:21;;;;;;;14.02;7.10;;;;;;;15.22;41.57;96383.78;10331740;28;20061;-49
2023/12/02 19:28:20;;;;;;;9.50;6.95;;;;;;;15.09;40.61;96323.34;10332691;28;20041;-49
2023/12/02 19:33:19;;;;;;;11.55;7.05;;;;;;;15.39;39.99;96380.47;10331499;28;20546;-50
2023/12/02 19:38:18;;;;;;;12.75;6.50;;;;;;;15.52;39.83;96413.00;10331700;28;20495;-49
2023/12/02 19:43:17;;;;;;;;;;;;;;;15.59;40.26;96431.91;10331830;28;20338;-50
2023/12/02 19:48:16;;;;;;;13.43;7.45;;;;;;;15.66;40.36;96428.13;10332055;28;19912;-51
2023/12/02 19:53:15;;;;;;;8.75;6.63;;;;;;;15.79;39.49;96434.56;10330494;28;20103;-51
2023/12/02 19:58:14;;;;;;;11.90;6.43;;;;;;;15.81;39.93;96447.56;10331132;28;20140;-49
2023/12/02 20:03:13;;;;;;;16.02;7.72;;;;;;;15.60;39.97;96403.09;10330805;28;20097;-49
2023/12/02 20:08:12;;;;;;;11.05;6.75;;;;;;;15.66;39.90;96426.34;10330946;28;20120;-50
2023/12/02 20:13:11;;;;;;;10.63;7.70;;;;;;;14.89;39.78;96282.38;10330278;28;20056;-49
2023/12/02 20:18:10;;;;;;;;;;;;;;;15.73;39.61;96436.56;10331237;28;20041;-50
2023/12/02 20:23:09;;;;;;;15.13;8.55;;;;;;;14.61;39.47;96248.69;10329273;28;19921;-48
2023/12/02 20:28:08;;;;;;;13.95;7.85;;;;;;;15.75;39.43;96439.97;10330775;28;20037;-49
2023/12/02 20:33:06;;;;;;;17.77;9.43;;;;;;;15.63;39.36;96418.66;10329742;28;20450;-49
2023/12/02 20:38:05;;;;;;;9.98;7.82;;;;;;;15.75;39.30;96438.19;10329506;28;20662;-49
2023/12/02 20:43:04;;;;;;;17.63;11.32;;;;;;;15.78;38.75;96455.53;10329131;28;20406;-49
2023/12/02 20:48:03;;;;;;;14.23;9.73;;;;;;;15.59;39.84;96440.59;10329445;28;20113;-50
2023/12/02 20:53:02;;;;;;;;;;;;;;;15.61;40.31;96457.09;10329533;28;20116;-49
2023/12/02 20:58:01;;;;;;;14.88;10.32;;;;;;;15.51;40.53;96466.22;10369897;28;19921;-49
2023/12/02 21:03:00;;;;;;;12.30;9.23;;;;;;;14.92;41.44;96456.41;10369210;28;20470;-50
2023/12/02 21:07:59;;;;;;;13.93;9.30;;;;;;;14.86;42.47;96478.41;10367195;28;20111;-50
2023/12/02 21:12:58;;;;;;;20.70;10.40;;;;;;;14.45;42.92;96479.91;10326892;28;20180;-49
2023/12/02 21:17:57;;;;;;;19.33;10.38;;;;;;;14.25;43.17;96463.25;10326787;28;20414;-49
2023/12/02 21:22:57;;;;;;;20.83;11.82;;;;;;;13.84;43.37;96439.47;10327824;28;20080;-49
2023/12/02 21:27:56;;;;;;;21.42;13.95;;;;;;;14.08;44.96;96512.56;10327801;28;20124;-49
2023/12/02 21:32:55;;;;;;;18.13;11.30;;;;;;;13.76;44.89;96512.75;10327541;28;20022;-50
2023/12/02 21:37:57;;;;;;;19.15;11.68;;;;;;;13.60;44.53;96476.81;10327653;28;20039;-50
2023/12/02 21:42:56;;;;;;;16.15;10.70;;;;;;;13.35;44.58;96472.38;10326199;28;20049;-50
2023/12/02 21:47:55;;;;;;;21.77;13.20;;;;;;;13.25;44.95;96473.59;10326845;28;20032;-51
2023/12/02 21:52:54;;;;;;;;;;;;;;;13.59;44.79;96533.31;10327144;28;20117;-50
2023/12/02 21:57:53;;;;;;;25.05;13.55;;;;;;;13.32;44.86;96503.75;10327381;28;19923;-53
2023/12/02 22:02:52;;;;;;;50.55;31.52;;;;;;;13.04;45.91;96496.78;10326526;28;20033;-50
2023/12/02 22:07:54;;;;;;;31.67;17.92;;;;;;;13.20;45.81;96540.63;10327000;28;20446;-50
2023/12/02 22:12:53;;;;;;;24.00;13.88;;;;;;;13.19;45.89;96570.16;10326228;28;20696;-51
2023/12/02 22:17:53;;;;;;;70.13;44.03;;;;;;;13.03;45.33;96560.22;10367017;28;20905;-51
2023/12/02 22:22:59;;;;;;;34.38;23.60;;;;;;;13.06;46.69;96567.94;10359265;28;20073;-51
2023/12/02 22:28:08;;;;;;;68.97;50.38;;;;;;;12.85;46.76;96584.19;10326436;28;20459;-50
2023/12/02 22:33:07;;;;;;;;;;;;;;;12.65;46.84;96580.41;10325816;28;20942;-52
2023/12/02 22:38:10;;;;;;;39.10;23.58;;;;;;;12.69;46.80;96576.78;10326914;28;20519;-50
2023/12/02 22:43:19;;;;;;;32.58;19.55;;;;;;;12.71;46.80;96595.84;10324031;28;20061;-50
2023/12/02 22:48:40;;;;;;;30.00;17.30;;;;;;;12.70;46.72;96609.75;10330166;28;20087;-50
2023/12/02 22:53:41;;;;;;;25.00;12.50;;;;;;;12.54;46.35;96600.66;10329783;28;20569;-50
2023/12/02 22:58:46;;;;;;;19.17;11.73;;;;;;;12.51;46.63;96587.75;10332617;28;20565;-50
2023/12/02 23:03:45;;;;;;;21.80;12.43;;;;;;;12.80;45.86;96610.34;10332088;28;20117;-50
2023/12/02 23:08:44;;;;;;;21.30;9.43;;;;;;;12.93;45.42;96621.28;10331726;28;20119;-50
2023/12/02 23:13:47;;;;;;;18.67;12.05;;;;;;;13.11;44.88;96625.94;10330786;28;20091;-50
2023/12/02 23:18:46;;;;;;;18.77;10.50;;;;;;;13.21;44.99;96621.34;10330736;28;20147;-52
2023/12/02 23:23:45;;;;;;;19.92;9.57;;;;;;;13.17;44.84;96637.94;10330700;28;20120;-50
2023/12/02 23:28:44;;;;;;;19.92;10.85;;;;;;;13.15;45.24;96647.56;10330152;28;20048;-51
2023/12/02 23:33:43;;;;;;;;;;;;;;;13.10;45.08;96659.84;10331117;28;20057;-51
2023/12/02 23:38:42;;;;;;;21.95;10.18;;;;;;;12.98;44.90;96648.03;10330719;28;19932;-50
2023/12/02 23:43:41;;;;;;;20.27;10.93;;;;;;;13.04;45.16;96654.81;10331115;28;20020;-50
2023/12/02 23:48:40;;;;;;;19.33;10.63;;;;;;;12.89;45.45;96671.72;10331895;28;20471;-50
2023/12/02 23:53:39;;;;;;;22.17;10.63;;;;;;;12.69;45.76;96662.69;10331794;28;20439;-49
2023/12/02 23:58:38;;;;;;;22.08;10.80;;;;;;;12.63;45.83;96669.84;10330993;28;20128;-51
